createdAt,value
2023-05-11T00:02:18.329Z,39.18
2023-05-11T00:04:47.968Z,39.24
2023-05-11T00:07:16.096Z,39.06
2023-05-11T00:09:44.558Z,39.06
2023-05-11T00:12:14.477Z,39.14
2023-05-11T00:14:42.621Z,39.15
2023-05-11T00:17:11.821Z,39.10
2023-05-11T00:19:39.987Z,39.09
2023-05-11T00:22:09.491Z,39.17
2023-05-11T00:24:37.722Z,39.08
2023-05-11T00:27:06.254Z,39.14
2023-05-11T00:29:34.426Z,39.05
2023-05-11T00:32:02.557Z,39.12
2023-05-11T00:34:30.666Z,39.00
2023-05-11T00:36:58.790Z,39.09
2023-05-11T00:39:28.460Z,39.02
2023-05-11T00:41:56.699Z,39.09
2023-05-11T00:44:24.846Z,39.12
2023-05-11T00:46:53.099Z,39.07
2023-05-11T00:49:22.876Z,39.07
2023-05-11T00:51:51.947Z,39.13
2023-05-11T00:54:20.119Z,39.09
2023-05-11T00:56:50.350Z,39.07
2023-05-11T00:59:18.768Z,39.00
2023-05-11T01:01:49.254Z,38.95
2023-05-11T01:04:17.407Z,39.08
2023-05-11T01:06:52.949Z,38.99
2023-05-11T01:09:31.004Z,39.07
2023-05-11T01:12:11.501Z,39.06
2023-05-11T01:14:46.861Z,38.99
2023-05-11T01:17:23.354Z,39.01
2023-05-11T01:19:58.766Z,38.99
2023-05-11T01:22:52.331Z,38.97
2023-05-11T01:25:44.396Z,39.01
2023-05-11T01:28:32.400Z,38.89
2023-05-11T01:31:08.298Z,39.06
2023-05-11T01:33:38.748Z,39.16
2023-05-11T01:36:11.216Z,39.08
2023-05-11T01:38:43.157Z,38.99
2023-05-11T01:41:15.940Z,39.05
2023-05-11T01:43:47.154Z,39.01
2023-05-11T01:46:18.385Z,39.08
2023-05-11T01:48:52.681Z,39.05
2023-05-11T01:51:21.953Z,38.97
2023-05-11T01:53:51.987Z,38.91
2023-05-11T01:56:22.826Z,39.05
2023-05-11T01:58:54.248Z,39.07
2023-05-11T02:01:26.509Z,39.10
2023-05-11T02:03:55.651Z,38.97
2023-05-11T02:06:27.873Z,39.04
2023-05-11T02:08:57.646Z,39.00
2023-05-11T02:11:27.916Z,39.03
2023-05-11T02:13:59.579Z,39.45
2023-05-11T02:16:30.732Z,38.97
2023-05-11T02:19:00.402Z,38.96
2023-05-11T02:21:29.689Z,38.96
2023-05-11T02:23:59.009Z,39.02
2023-05-11T02:26:27.624Z,39.05
2023-05-11T02:28:55.914Z,38.99
2023-05-11T02:31:29.626Z,38.94
2023-05-11T02:34:06.517Z,38.93
2023-05-11T02:36:37.043Z,39.08
2023-05-11T02:39:10.878Z,38.96
2023-05-11T02:41:43.418Z,39.02
2023-05-11T02:44:17.421Z,38.89
2023-05-11T02:46:50.038Z,39.02
2023-05-11T02:49:22.384Z,38.94
2023-05-11T02:51:51.869Z,39.03
2023-05-11T02:54:20.886Z,38.87
2023-05-11T02:56:49.392Z,38.83
2023-05-11T02:59:18.879Z,38.92
2023-05-11T03:01:49.482Z,39.06
2023-05-11T03:04:17.862Z,39.10
2023-05-11T03:06:46.223Z,39.01
2023-05-11T03:09:14.478Z,39.01
2023-05-11T03:11:43.802Z,39.02
2023-05-11T03:14:12.169Z,38.96
2023-05-11T03:16:42.279Z,39.04
2023-05-11T03:19:12.275Z,38.99
2023-05-11T03:21:41.174Z,38.67
2023-05-11T03:24:10.348Z,39.10
2023-05-11T03:26:39.437Z,38.97
2023-05-11T03:29:11.787Z,39.09
2023-05-11T03:31:40.489Z,38.89
2023-05-11T03:34:08.636Z,38.99
2023-05-11T03:36:39.916Z,39.01
2023-05-11T03:39:11.565Z,39.08
2023-05-11T03:41:41.748Z,39.12
2023-05-11T03:44:13.930Z,39.09
2023-05-11T03:46:46.000Z,39.04
2023-05-11T03:49:14.378Z,39.01
2023-05-11T03:51:45.578Z,38.98
2023-05-11T03:54:14.312Z,38.94
2023-05-11T03:56:43.658Z,39.06
2023-05-11T03:59:17.694Z,39.07
2023-05-11T04:01:46.196Z,39.08
2023-05-11T04:04:14.392Z,39.09
2023-05-11T04:06:44.204Z,39.09
2023-05-11T04:09:12.801Z,39.08
2023-05-11T04:11:40.989Z,39.23
2023-05-11T04:14:09.153Z,39.02
2023-05-11T04:16:37.317Z,39.00
2023-05-11T04:19:06.394Z,39.13
2023-05-11T04:21:34.559Z,39.13
2023-05-11T04:24:06.367Z,39.12
2023-05-11T04:26:34.756Z,39.08
2023-05-11T04:29:03.047Z,39.17
2023-05-11T04:31:31.262Z,39.17
2023-05-11T04:34:00.215Z,39.17
2023-05-11T04:36:28.432Z,39.10
2023-05-11T04:38:56.726Z,39.15
2023-05-11T04:41:26.353Z,39.19
2023-05-11T04:43:54.420Z,39.09
2023-05-11T04:46:23.592Z,39.03
2023-05-11T04:48:52.153Z,39.18
2023-05-11T04:51:20.349Z,39.08
2023-05-11T04:53:48.482Z,39.08
2023-05-11T04:56:16.614Z,39.13
2023-05-11T04:58:46.150Z,39.13
2023-05-11T05:01:14.331Z,39.15
2023-05-11T05:03:42.594Z,39.17
2023-05-11T05:06:10.940Z,39.27
2023-05-11T05:08:39.646Z,39.17
2023-05-11T05:11:08.017Z,39.24
2023-05-11T05:13:36.175Z,39.07
2023-05-11T05:16:06.146Z,39.16
2023-05-11T05:18:34.248Z,39.23
2023-05-11T05:21:03.952Z,39.33
2023-05-11T05:23:32.501Z,39.25
2023-05-11T05:26:01.561Z,39.22
2023-05-11T05:28:29.704Z,39.34
2023-05-11T05:31:00.162Z,39.13
2023-05-11T05:33:29.863Z,39.28
2023-05-11T05:35:58.326Z,39.25
2023-05-11T05:38:26.488Z,39.24
2023-05-11T05:40:54.693Z,39.33
2023-05-11T05:43:22.825Z,39.23
2023-05-11T05:45:51.127Z,39.26
2023-05-11T05:48:19.256Z,39.43
2023-05-11T05:50:49.315Z,39.43
2023-05-11T05:53:17.496Z,39.45
2023-05-11T05:55:45.625Z,39.52
2023-05-11T05:58:13.948Z,39.33
2023-05-11T06:00:42.203Z,39.32
2023-05-11T06:03:10.447Z,39.37
2023-05-11T06:05:38.668Z,39.41
2023-05-11T06:08:11.400Z,39.43
2023-05-11T06:10:39.879Z,39.46
2023-05-11T06:13:09.463Z,39.41
2023-05-11T06:15:37.808Z,39.43
2023-05-11T06:18:06.536Z,39.50
2023-05-11T06:20:34.763Z,39.53
2023-05-11T06:23:03.027Z,39.30
2023-05-11T06:25:35.274Z,39.46
2023-05-11T06:28:03.499Z,39.42
2023-05-11T06:30:31.650Z,39.42
2023-05-11T06:32:59.935Z,39.39
2023-05-11T06:35:28.200Z,39.37
2023-05-11T06:37:56.387Z,39.42
2023-05-11T06:40:25.346Z,39.37
2023-05-11T06:42:54.911Z,39.50
2023-05-11T06:45:23.453Z,39.42
2023-05-11T06:47:51.611Z,39.54
2023-05-11T06:50:21.299Z,39.60
2023-05-11T06:52:49.984Z,39.41
2023-05-11T06:55:18.280Z,39.67
2023-05-11T06:57:49.084Z,39.54
2023-05-11T07:00:19.955Z,39.51
2023-05-11T07:02:48.988Z,39.47
2023-05-11T07:05:17.552Z,39.60
2023-05-11T07:07:45.740Z,39.63
2023-05-11T07:10:13.896Z,39.64
2023-05-11T07:12:42.130Z,39.66
2023-05-11T07:15:11.168Z,39.68
2023-05-11T07:17:40.702Z,39.60
2023-05-11T07:20:10.016Z,39.71
2023-05-11T07:22:38.298Z,39.61
2023-05-11T07:25:08.920Z,39.67
2023-05-11T07:27:37.183Z,39.59
2023-05-11T07:30:05.987Z,39.78
2023-05-11T07:32:34.233Z,39.96
2023-05-11T07:35:03.885Z,39.61
2023-05-11T07:37:32.094Z,39.77
2023-05-11T07:40:00.293Z,39.80
2023-05-11T07:42:28.742Z,39.72
2023-05-11T07:44:56.851Z,39.88
2023-05-11T07:47:25.349Z,39.79
2023-05-11T07:49:53.659Z,39.93
2023-05-11T07:52:23.600Z,39.87
2023-05-11T07:54:51.929Z,39.91
2023-05-11T07:57:20.742Z,39.99
2023-05-11T07:59:48.870Z,39.83
2023-05-11T08:02:17.073Z,39.87
2023-05-11T08:04:45.264Z,39.94
2023-05-11T08:07:13.974Z,39.91
2023-05-11T08:09:44.765Z,40.08
2023-05-11T08:12:13.518Z,39.93
2023-05-11T08:14:43.245Z,39.93
2023-05-11T08:17:11.679Z,40.00
2023-05-11T08:19:39.845Z,40.00
2023-05-11T08:22:08.030Z,40.01
2023-05-11T08:24:36.513Z,40.03
2023-05-11T08:27:06.248Z,39.90
2023-05-11T08:29:34.426Z,40.04
2023-05-11T08:32:02.593Z,39.96
2023-05-11T08:34:33.427Z,39.81
2023-05-11T08:37:02.099Z,40.03
2023-05-11T08:39:46.015Z,39.95
2023-05-11T08:42:18.074Z,39.98
2023-05-11T08:44:49.632Z,40.00
2023-05-11T08:47:23.417Z,40.05
2023-05-11T08:49:52.956Z,40.06
2023-05-11T08:52:21.710Z,40.13
2023-05-11T08:54:50.488Z,40.01
2023-05-11T08:57:20.850Z,40.00
2023-05-11T08:59:51.581Z,40.28
2023-05-11T09:02:21.685Z,40.12
2023-05-11T09:04:52.105Z,40.10
2023-05-11T09:07:21.717Z,40.21
2023-05-11T09:09:50.063Z,40.13
2023-05-11T09:12:20.331Z,40.19
2023-05-11T09:14:48.668Z,40.13
2023-05-11T09:17:16.741Z,40.22
2023-05-11T09:20:02.384Z,40.59
2023-05-11T09:22:32.130Z,40.39
2023-05-11T09:25:04.114Z,40.30
2023-05-11T09:27:34.133Z,40.25
2023-05-11T09:30:12.648Z,40.40
2023-05-11T09:32:52.195Z,40.43
2023-05-11T09:35:22.120Z,40.18
2023-05-11T09:38:05.713Z,40.67
2023-05-11T09:40:35.332Z,40.26
2023-05-11T09:43:05.200Z,40.18
2023-05-11T09:45:37.582Z,40.32
2023-05-11T09:48:06.376Z,40.22
2023-05-11T09:50:35.361Z,40.33
2023-05-11T09:53:03.576Z,40.28
2023-05-11T09:55:31.986Z,40.35
2023-05-11T09:58:01.329Z,40.49
2023-05-11T10:00:30.910Z,40.36
2023-05-11T10:03:06.197Z,40.49
2023-05-11T10:05:37.735Z,40.49
2023-05-11T10:08:07.153Z,40.50
2023-05-11T10:10:36.217Z,40.40
2023-05-11T10:13:04.750Z,40.57
2023-05-11T10:15:36.736Z,40.62
2023-05-11T10:18:07.236Z,40.49
2023-05-11T10:20:35.567Z,40.58
2023-05-11T10:23:04.781Z,40.61
2023-05-11T10:25:34.605Z,40.63
2023-05-11T10:28:03.601Z,40.44
2023-05-11T10:30:34.447Z,40.61
2023-05-11T10:33:03.173Z,40.61
2023-05-11T10:35:32.628Z,40.58
2023-05-11T10:38:02.757Z,40.58
2023-05-11T10:40:31.717Z,40.62
2023-05-11T10:43:28.369Z,41.02
2023-05-11T10:46:09.526Z,40.71
2023-05-11T10:49:15.082Z,41.00
2023-05-11T10:52:12.136Z,40.71
2023-05-11T10:54:55.466Z,40.95
2023-05-11T10:57:37.483Z,40.91
2023-05-11T11:00:47.956Z,41.22
2023-05-11T11:03:17.777Z,40.71
2023-05-11T11:05:46.496Z,40.71
2023-05-11T11:08:14.625Z,40.76
2023-05-11T11:10:46.297Z,40.72
2023-05-11T11:13:17.090Z,40.75
2023-05-11T11:16:16.549Z,41.38
2023-05-11T11:18:47.673Z,40.78
2023-05-11T11:21:42.437Z,41.25
2023-05-11T11:24:10.467Z,40.81
2023-05-11T11:26:49.620Z,41.19
2023-05-11T11:29:17.943Z,40.96
2023-05-11T11:31:46.037Z,40.87
2023-05-11T11:34:38.837Z,41.39
2023-05-11T11:37:09.007Z,40.87
2023-05-11T11:39:50.183Z,41.14
2023-05-11T11:42:20.116Z,40.75
2023-05-11T11:44:48.578Z,40.84
2023-05-11T11:47:17.717Z,40.93
2023-05-11T11:49:49.134Z,40.96
2023-05-11T11:52:34.812Z,41.30
2023-05-11T11:55:05.247Z,40.88
2023-05-11T11:57:49.416Z,41.31
2023-05-11T12:00:22.849Z,40.87
2023-05-11T12:02:51.424Z,40.98
2023-05-11T12:05:25.315Z,40.85
2023-05-11T12:07:55.310Z,40.64
2023-05-11T12:10:24.469Z,40.99
2023-05-11T12:12:55.302Z,40.78
2023-05-11T12:15:27.401Z,40.75
2023-05-11T12:17:57.649Z,40.95
2023-05-11T12:20:27.366Z,40.90
2023-05-11T12:22:55.907Z,41.00
2023-05-11T12:25:25.148Z,41.00
2023-05-11T12:27:55.746Z,40.96
2023-05-11T12:30:25.325Z,41.03
2023-05-11T12:32:57.564Z,40.96
2023-05-11T12:35:29.526Z,40.87
2023-05-11T12:38:04.557Z,41.10
2023-05-11T12:40:33.778Z,41.00
2023-05-11T12:43:02.057Z,40.93
2023-05-11T12:45:30.697Z,40.99
2023-05-11T12:47:59.705Z,40.97
2023-05-11T12:50:29.268Z,40.98
2023-05-11T12:53:13.478Z,41.32
2023-05-11T12:55:41.778Z,41.04
2023-05-11T12:58:14.302Z,41.09
2023-05-11T13:00:52.757Z,41.41
2023-05-11T13:03:24.138Z,41.09
2023-05-11T13:05:54.516Z,41.02
2023-05-11T13:08:22.588Z,41.09
2023-05-11T13:10:50.852Z,41.12
2023-05-11T13:13:28.570Z,41.30
2023-05-11T13:15:57.107Z,41.10
2023-05-11T13:18:25.285Z,41.09
2023-05-11T13:21:07.912Z,41.46
2023-05-11T13:23:36.994Z,41.28
2023-05-11T13:26:05.116Z,41.16
2023-05-11T13:28:35.214Z,41.08
2023-05-11T13:31:03.476Z,41.24
2023-05-11T13:33:32.128Z,41.22
2023-05-11T13:36:00.346Z,41.04
2023-05-11T13:38:29.889Z,41.13
2023-05-11T13:40:58.165Z,41.24
2023-05-11T13:43:26.373Z,41.30
2023-05-11T13:45:54.460Z,41.18
2023-05-11T13:48:22.722Z,41.25
2023-05-11T13:50:50.882Z,41.26
2023-05-11T13:53:18.995Z,41.23
2023-05-11T13:55:48.649Z,41.18
2023-05-11T13:58:17.925Z,41.20
2023-05-11T14:00:56.678Z,41.28
2023-05-11T14:03:35.240Z,41.14
2023-05-11T14:06:04.743Z,41.31
2023-05-11T14:08:32.945Z,41.25
2023-05-11T14:11:02.920Z,41.21
2023-05-11T14:13:31.104Z,41.27
2023-05-11T14:15:59.297Z,41.35
2023-05-11T14:18:28.116Z,41.28
2023-05-11T14:20:56.960Z,41.32
2023-05-11T14:23:25.809Z,41.33
2023-05-11T14:25:54.026Z,41.26
2023-05-11T14:28:24.107Z,41.28
2023-05-11T14:30:52.256Z,41.32
2023-05-11T14:33:20.411Z,41.43
2023-05-11T14:35:49.400Z,41.27
2023-05-11T14:38:18.655Z,41.24
2023-05-11T14:40:47.141Z,41.29
2023-05-11T14:43:15.336Z,41.31
2023-05-11T14:45:45.034Z,41.26
2023-05-11T14:48:13.272Z,41.34
2023-05-11T14:50:43.141Z,41.38
2023-05-11T14:53:11.222Z,41.40
2023-05-11T14:55:39.948Z,41.33
2023-05-11T14:58:09.405Z,41.35
2023-05-11T15:00:40.456Z,41.25
2023-05-11T15:03:13.503Z,41.38
2023-05-11T15:05:41.981Z,41.42
2023-05-11T15:08:18.556Z,41.38
2023-05-11T15:10:54.204Z,41.47
2023-05-11T15:13:22.714Z,41.39
2023-05-11T15:15:50.852Z,41.53
2023-05-11T15:18:20.646Z,41.37
2023-05-11T15:20:48.990Z,41.54
2023-05-11T15:23:17.420Z,41.43
2023-05-11T15:25:45.740Z,41.41
2023-05-11T15:28:13.971Z,41.21
2023-05-11T15:30:42.303Z,41.46
2023-05-11T15:33:11.178Z,41.33
2023-05-11T15:35:40.722Z,41.39
2023-05-11T15:38:08.809Z,41.38
2023-05-11T15:40:37.307Z,41.52
2023-05-11T15:43:07.863Z,41.43
2023-05-11T15:45:36.756Z,41.54
2023-05-11T15:48:05.299Z,41.51
2023-05-11T15:50:33.391Z,41.40
2023-05-11T15:53:02.899Z,41.48
2023-05-11T15:55:34.523Z,41.47
2023-05-11T15:58:02.738Z,41.50
2023-05-11T16:00:30.754Z,41.52
2023-05-11T16:02:58.872Z,41.49
2023-05-11T16:05:28.109Z,41.48
2023-05-11T16:07:56.231Z,41.60
2023-05-11T16:10:25.989Z,41.50
2023-05-11T16:12:55.170Z,41.62
2023-05-11T16:15:25.085Z,41.52
2023-05-11T16:17:53.240Z,41.55
2023-05-11T16:20:21.602Z,41.51
2023-05-11T16:22:50.124Z,41.54
2023-05-11T16:25:18.490Z,41.42
2023-05-11T16:27:47.967Z,41.34
2023-05-11T16:30:24.175Z,41.62
2023-05-11T16:32:53.142Z,41.62
2023-05-11T16:35:21.683Z,41.72
2023-05-11T16:37:49.862Z,41.60
2023-05-11T16:40:19.603Z,41.58
2023-05-11T16:42:49.402Z,41.71
2023-05-11T16:45:17.781Z,41.65
2023-05-11T16:47:46.372Z,41.71
2023-05-11T16:50:16.505Z,41.67
2023-05-11T16:52:45.239Z,41.85
2023-05-11T16:55:16.132Z,41.75
2023-05-11T16:57:44.815Z,41.67
2023-05-11T17:00:15.643Z,41.49
2023-05-11T17:02:43.903Z,41.59
2023-05-11T17:05:12.863Z,41.56
2023-05-11T17:07:42.747Z,41.70
2023-05-11T17:10:16.149Z,41.67
2023-05-11T17:12:47.738Z,41.61
2023-05-11T17:15:17.366Z,41.75
2023-05-11T17:17:45.500Z,41.76
2023-05-11T17:20:14.616Z,41.77
2023-05-11T17:22:42.765Z,41.74
2023-05-11T17:25:11.227Z,41.90
2023-05-11T17:27:39.538Z,41.88
2023-05-11T17:30:10.599Z,41.79
2023-05-11T17:32:40.265Z,41.75
2023-05-11T17:35:10.631Z,41.76
2023-05-11T17:37:38.858Z,41.84
2023-05-11T17:40:09.443Z,41.76
2023-05-11T17:42:37.566Z,41.93
2023-05-11T17:45:06.257Z,41.99
2023-05-11T17:47:34.748Z,42.00
2023-05-11T17:50:04.771Z,41.97
2023-05-11T17:52:36.565Z,42.11
2023-05-11T17:55:04.866Z,41.79
2023-05-11T17:57:33.368Z,42.00
2023-05-11T18:00:01.436Z,42.10
2023-05-11T18:02:29.620Z,41.98
2023-05-11T18:04:58.051Z,42.07
2023-05-11T18:07:29.360Z,42.00
2023-05-11T18:09:58.017Z,42.01
2023-05-11T18:12:26.518Z,42.12
2023-05-11T18:14:54.947Z,42.03
2023-05-11T18:17:23.570Z,42.03
2023-05-11T18:19:51.676Z,42.01
2023-05-11T18:22:20.217Z,42.20
2023-05-11T18:24:49.963Z,42.05
2023-05-11T18:27:18.650Z,42.02
2023-05-11T18:29:46.744Z,42.15
2023-05-11T18:32:15.150Z,42.17
2023-05-11T18:34:43.486Z,42.16
2023-05-11T18:37:11.536Z,42.16
2023-05-11T18:39:39.998Z,42.18
2023-05-11T18:42:09.743Z,41.92
2023-05-11T18:44:37.939Z,42.21
2023-05-11T18:47:06.861Z,42.25
2023-05-11T18:49:35.580Z,42.22
2023-05-11T18:52:09.419Z,42.23
2023-05-11T18:54:37.675Z,42.13
2023-05-11T18:57:07.968Z,42.20
2023-05-11T18:59:37.808Z,42.30
2023-05-11T19:02:06.393Z,42.29
2023-05-11T19:04:34.791Z,42.26
2023-05-11T19:07:04.625Z,42.30
2023-05-11T19:09:32.813Z,42.39
2023-05-11T19:12:01.091Z,42.27
2023-05-11T19:14:29.703Z,42.29
2023-05-11T19:16:59.548Z,42.46
2023-05-11T19:19:27.822Z,42.31
2023-05-11T19:21:56.331Z,42.44
2023-05-11T19:24:24.515Z,42.40
2023-05-11T19:27:05.908Z,42.36
2023-05-11T19:29:35.530Z,42.47
2023-05-11T19:32:08.155Z,42.62
2023-05-11T19:34:36.368Z,42.52
2023-05-11T19:37:04.564Z,42.51
2023-05-11T19:39:33.192Z,42.47
2023-05-11T19:42:01.480Z,42.50
2023-05-11T19:44:33.083Z,42.52
2023-05-11T19:47:01.515Z,42.23
2023-05-11T19:49:32.560Z,42.51
2023-05-11T19:52:00.784Z,42.42
2023-05-11T19:54:29.061Z,42.59
2023-05-11T19:56:59.930Z,42.58
2023-05-11T19:59:33.165Z,42.54
2023-05-11T20:02:06.727Z,42.51
2023-05-11T20:04:36.499Z,42.60
2023-05-11T20:07:06.209Z,42.53
2023-05-11T20:09:35.046Z,42.70
2023-05-11T20:12:03.637Z,42.59
2023-05-11T20:14:35.857Z,42.68
2023-05-11T20:17:07.484Z,42.67
2023-05-11T20:19:43.546Z,42.50
2023-05-11T20:22:11.731Z,42.56
2023-05-11T20:24:45.687Z,42.51
2023-05-11T20:27:13.874Z,42.56
2023-05-11T20:29:42.221Z,42.58
2023-05-11T20:32:10.793Z,42.64
2023-05-11T20:34:40.453Z,42.53
2023-05-11T20:37:10.156Z,42.55
2023-05-11T20:39:38.278Z,42.51
2023-05-11T20:42:07.125Z,42.66
2023-05-11T20:44:43.725Z,42.51
2023-05-11T20:47:12.026Z,42.58
2023-05-11T20:49:41.589Z,42.50
2023-05-11T20:52:10.233Z,42.46
2023-05-11T20:54:38.369Z,42.58
2023-05-11T20:57:08.361Z,42.64
2023-05-11T21:02:09.337Z,42.52
2023-05-11T21:04:38.027Z,42.43
2023-05-11T21:07:07.967Z,42.41
2023-05-11T21:09:36.808Z,42.57
2023-05-11T21:12:05.127Z,42.45
2023-05-11T21:14:33.360Z,42.57
2023-05-11T21:17:02.010Z,42.65
2023-05-11T21:19:30.114Z,42.57
2023-05-11T21:21:58.217Z,42.56
2023-05-11T21:24:27.706Z,42.54
2023-05-11T21:26:56.093Z,42.44
2023-05-11T21:29:24.257Z,42.44
2023-05-11T21:31:53.140Z,42.47
2023-05-11T21:34:21.490Z,42.44
2023-05-11T21:36:50.846Z,42.38
2023-05-11T21:39:21.774Z,42.61
2023-05-11T21:41:51.380Z,42.49
2023-05-11T21:44:19.551Z,42.44
2023-05-11T21:46:48.948Z,42.55
2023-05-11T21:49:17.455Z,42.33
2023-05-11T21:51:45.630Z,42.46
2023-05-11T21:54:14.224Z,42.45
2023-05-11T21:56:42.335Z,42.50
2023-05-11T21:59:11.975Z,42.58
2023-05-11T22:01:40.096Z,42.45
2023-05-11T22:04:09.163Z,42.39
2023-05-11T22:06:37.588Z,42.50
2023-05-11T22:09:06.282Z,42.41
2023-05-11T22:11:35.519Z,42.54
2023-05-11T22:14:03.624Z,42.36
2023-05-11T22:16:33.233Z,42.45
2023-05-11T22:19:01.709Z,42.37
2023-05-11T22:21:29.888Z,42.43
2023-05-11T22:23:57.992Z,42.40
2023-05-11T22:26:26.451Z,42.46
2023-05-11T22:28:54.588Z,42.35
2023-05-11T22:31:22.738Z,42.42
2023-05-11T22:33:52.351Z,42.44
2023-05-11T22:36:20.492Z,42.47
2023-05-11T22:38:48.603Z,42.36
2023-05-11T22:41:16.765Z,42.41
2023-05-11T22:43:44.895Z,42.40
2023-05-11T22:46:12.949Z,42.61
2023-05-11T22:48:41.323Z,42.33
2023-05-11T22:51:10.781Z,42.39
2023-05-11T22:53:38.884Z,42.34
2023-05-11T22:56:09.210Z,42.34
2023-05-11T22:58:37.254Z,42.29
2023-05-11T23:01:05.457Z,42.32
2023-05-11T23:03:33.534Z,42.35
2023-05-11T23:06:02.153Z,42.33
2023-05-11T23:08:31.586Z,42.38
2023-05-11T23:10:59.647Z,42.33
2023-05-11T23:13:28.212Z,42.37
2023-05-11T23:15:56.219Z,42.34
2023-05-11T23:18:24.392Z,42.32
2023-05-11T23:20:57.009Z,42.40
2023-05-11T23:23:25.224Z,42.39
2023-05-11T23:25:55.037Z,42.28
2023-05-11T23:28:24.134Z,42.37
2023-05-11T23:30:52.178Z,42.32
2023-05-11T23:33:22.280Z,42.24
2023-05-11T23:35:50.400Z,42.50
2023-05-11T23:38:18.634Z,42.28
2023-05-11T23:40:46.762Z,42.36
2023-05-11T23:43:16.341Z,42.36
2023-05-11T23:45:44.379Z,42.34
2023-05-11T23:48:12.582Z,42.39
2023-05-11T23:50:40.656Z,42.35
2023-05-11T23:53:08.658Z,42.27
2023-05-11T23:55:36.700Z,42.41
2023-05-11T23:58:04.728Z,42.19
